sensor_id;sensor_type;location;lat;lon;timestamp;P1;durP1;ratioP1;P2;durP2;ratioP2
6163;SDS011;3114;48.362;10.994;2023-02-22T00:01:31;4.28;;;2.45;;
6163;SDS011;3114;48.362;10.994;2023-02-22T00:04:00;4.05;;;2.80;;
6163;SDS011;3114;48.362;10.994;2023-02-22T00:06:28;5.40;;;2.70;;
6163;SDS011;3114;48.362;10.994;2023-02-22T00:08:56;3.53;;;2.78;;
6163;SDS011;3114;48.362;10.994;2023-02-22T00:11:25;4.05;;;2.72;;
6163;SDS011;3114;48.362;10.994;2023-02-22T00:13:52;4.88;;;2.75;;
6163;SDS011;3114;48.362;10.994;2023-02-22T00:16:21;6.25;;;2.90;;
6163;SDS011;3114;48.362;10.994;2023-02-22T00:18:49;5.05;;;2.85;;
6163;SDS011;3114;48.362;10.994;2023-02-22T00:21:17;4.50;;;2.85;;
6163;SDS011;3114;48.362;10.994;2023-02-22T00:23:45;5.43;;;2.80;;
6163;SDS011;3114;48.362;10.994;2023-02-22T00:26:15;3.97;;;2.60;;
6163;SDS011;3114;48.362;10.994;2023-02-22T00:28:46;4.00;;;3.10;;
6163;SDS011;3114;48.362;10.994;2023-02-22T00:31:14;3.80;;;2.58;;
6163;SDS011;3114;48.362;10.994;2023-02-22T00:33:41;6.68;;;3.20;;
6163;SDS011;3114;48.362;10.994;2023-02-22T00:36:08;5.28;;;2.90;;
6163;SDS011;3114;48.362;10.994;2023-02-22T00:38:36;4.57;;;2.83;;
6163;SDS011;3114;48.362;10.994;2023-02-22T00:41:06;5.13;;;2.58;;
6163;SDS011;3114;48.362;10.994;2023-02-22T00:43:33;5.15;;;3.35;;
6163;SDS011;3114;48.362;10.994;2023-02-22T00:46:01;5.28;;;2.78;;
6163;SDS011;3114;48.362;10.994;2023-02-22T00:48:28;8.40;;;3.25;;
6163;SDS011;3114;48.362;10.994;2023-02-22T00:50:55;3.42;;;2.88;;
6163;SDS011;3114;48.362;10.994;2023-02-22T00:53:22;5.75;;;2.92;;
6163;SDS011;3114;48.362;10.994;2023-02-22T00:55:50;8.40;;;2.88;;
6163;SDS011;3114;48.362;10.994;2023-02-22T00:58:17;4.68;;;2.90;;
6163;SDS011;3114;48.362;10.994;2023-02-22T01:00:44;7.00;;;3.20;;
6163;SDS011;3114;48.362;10.994;2023-02-22T01:03:14;5.85;;;3.03;;
6163;SDS011;3114;48.362;10.994;2023-02-22T01:05:42;6.15;;;2.80;;
6163;SDS011;3114;48.362;10.994;2023-02-22T01:08:10;7.38;;;2.85;;
6163;SDS011;3114;48.362;10.994;2023-02-22T01:10:38;5.50;;;2.72;;
6163;SDS011;3114;48.362;10.994;2023-02-22T01:13:05;4.75;;;2.80;;
6163;SDS011;3114;48.362;10.994;2023-02-22T01:15:36;4.22;;;2.88;;
6163;SDS011;3114;48.362;10.994;2023-02-22T01:18:05;4.70;;;2.78;;
6163;SDS011;3114;48.362;10.994;2023-02-22T01:20:34;5.40;;;2.72;;
6163;SDS011;3114;48.362;10.994;2023-02-22T01:23:01;4.68;;;2.58;;
6163;SDS011;3114;48.362;10.994;2023-02-22T01:25:31;4.47;;;2.40;;
6163;SDS011;3114;48.362;10.994;2023-02-22T01:28:00;5.15;;;2.70;;
6163;SDS011;3114;48.362;10.994;2023-02-22T01:30:29;2.80;;;2.30;;
6163;SDS011;3114;48.362;10.994;2023-02-22T01:32:57;3.75;;;2.60;;
6163;SDS011;3114;48.362;10.994;2023-02-22T01:35:26;3.38;;;2.72;;
6163;SDS011;3114;48.362;10.994;2023-02-22T01:37:56;3.70;;;2.63;;
6163;SDS011;3114;48.362;10.994;2023-02-22T01:40:25;3.95;;;2.88;;
6163;SDS011;3114;48.362;10.994;2023-02-22T01:42:56;4.55;;;2.67;;
6163;SDS011;3114;48.362;10.994;2023-02-22T01:45:37;6.32;;;2.78;;
6163;SDS011;3114;48.362;10.994;2023-02-22T01:48:11;4.05;;;2.80;;
6163;SDS011;3114;48.362;10.994;2023-02-22T01:50:45;5.13;;;2.85;;
6163;SDS011;3114;48.362;10.994;2023-02-22T01:53:18;3.78;;;3.03;;
6163;SDS011;3114;48.362;10.994;2023-02-22T01:55:48;5.30;;;3.25;;
6163;SDS011;3114;48.362;10.994;2023-02-22T01:58:17;6.90;;;3.30;;
6163;SDS011;3114;48.362;10.994;2023-02-22T02:00:46;4.78;;;3.10;;
6163;SDS011;3114;48.362;10.994;2023-02-22T02:03:13;6.20;;;3.53;;
6163;SDS011;3114;48.362;10.994;2023-02-22T02:05:45;4.85;;;3.40;;
6163;SDS011;3114;48.362;10.994;2023-02-22T02:08:17;6.28;;;3.10;;
6163;SDS011;3114;48.362;10.994;2023-02-22T02:10:53;5.32;;;3.67;;
6163;SDS011;3114;48.362;10.994;2023-02-22T02:13:22;6.65;;;3.47;;
6163;SDS011;3114;48.362;10.994;2023-02-22T02:15:49;4.80;;;3.08;;
6163;SDS011;3114;48.362;10.994;2023-02-22T02:18:20;6.60;;;3.33;;
6163;SDS011;3114;48.362;10.994;2023-02-22T02:20:50;4.82;;;3.30;;
6163;SDS011;3114;48.362;10.994;2023-02-22T02:23:33;5.03;;;3.00;;
6163;SDS011;3114;48.362;10.994;2023-02-22T02:26:26;4.80;;;3.22;;
6163;SDS011;3114;48.362;10.994;2023-02-22T02:29:25;3.83;;;2.72;;
6163;SDS011;3114;48.362;10.994;2023-02-22T02:32:19;6.10;;;3.10;;
6163;SDS011;3114;48.362;10.994;2023-02-22T02:34:54;3.83;;;2.88;;
6163;SDS011;3114;48.362;10.994;2023-02-22T02:37:31;5.22;;;3.00;;
6163;SDS011;3114;48.362;10.994;2023-02-22T02:40:05;4.88;;;2.78;;
6163;SDS011;3114;48.362;10.994;2023-02-22T02:42:39;4.32;;;2.95;;
6163;SDS011;3114;48.362;10.994;2023-02-22T02:45:14;3.97;;;3.03;;
6163;SDS011;3114;48.362;10.994;2023-02-22T02:47:48;4.30;;;2.75;;
6163;SDS011;3114;48.362;10.994;2023-02-22T02:50:22;4.50;;;3.35;;
6163;SDS011;3114;48.362;10.994;2023-02-22T02:52:52;3.75;;;2.78;;
6163;SDS011;3114;48.362;10.994;2023-02-22T02:55:22;4.75;;;2.80;;
6163;SDS011;3114;48.362;10.994;2023-02-22T02:57:49;4.30;;;2.80;;
6163;SDS011;3114;48.362;10.994;2023-02-22T03:00:17;3.40;;;2.78;;
6163;SDS011;3114;48.362;10.994;2023-02-22T03:02:53;3.95;;;2.97;;
6163;SDS011;3114;48.362;10.994;2023-02-22T03:05:40;4.57;;;2.83;;
6163;SDS011;3114;48.362;10.994;2023-02-22T03:08:19;4.32;;;3.13;;
6163;SDS011;3114;48.362;10.994;2023-02-22T03:10:55;4.30;;;3.42;;
6163;SDS011;3114;48.362;10.994;2023-02-22T03:13:33;4.00;;;3.35;;
6163;SDS011;3114;48.362;10.994;2023-02-22T03:16:09;4.47;;;2.60;;
6163;SDS011;3114;48.362;10.994;2023-02-22T03:18:46;5.18;;;2.75;;
6163;SDS011;3114;48.362;10.994;2023-02-22T03:21:18;4.47;;;2.90;;
6163;SDS011;3114;48.362;10.994;2023-02-22T03:23:50;4.50;;;2.95;;
6163;SDS011;3114;48.362;10.994;2023-02-22T03:26:27;6.40;;;3.20;;
6163;SDS011;3114;48.362;10.994;2023-02-22T03:28:58;7.82;;;3.60;;
6163;SDS011;3114;48.362;10.994;2023-02-22T03:31:30;5.32;;;3.33;;
6163;SDS011;3114;48.362;10.994;2023-02-22T03:34:03;4.93;;;3.83;;
6163;SDS011;3114;48.362;10.994;2023-02-22T03:36:34;4.38;;;3.40;;
6163;SDS011;3114;48.362;10.994;2023-02-22T03:39:05;6.63;;;3.80;;
6163;SDS011;3114;48.362;10.994;2023-02-22T03:41:36;12.38;;;3.97;;
6163;SDS011;3114;48.362;10.994;2023-02-22T03:44:06;4.13;;;3.40;;
6163;SDS011;3114;48.362;10.994;2023-02-22T03:46:35;5.43;;;3.65;;
6163;SDS011;3114;48.362;10.994;2023-02-22T03:49:08;5.63;;;3.35;;
6163;SDS011;3114;48.362;10.994;2023-02-22T03:51:38;6.15;;;3.50;;
6163;SDS011;3114;48.362;10.994;2023-02-22T03:54:05;4.65;;;3.50;;
6163;SDS011;3114;48.362;10.994;2023-02-22T03:56:38;5.90;;;3.67;;
6163;SDS011;3114;48.362;10.994;2023-02-22T03:59:11;4.85;;;3.65;;
6163;SDS011;3114;48.362;10.994;2023-02-22T04:01:38;5.68;;;3.75;;
6163;SDS011;3114;48.362;10.994;2023-02-22T04:04:07;7.57;;;3.78;;
6163;SDS011;3114;48.362;10.994;2023-02-22T04:06:33;8.93;;;4.00;;
6163;SDS011;3114;48.362;10.994;2023-02-22T04:09:00;5.10;;;3.63;;
6163;SDS011;3114;48.362;10.994;2023-02-22T04:11:27;5.45;;;3.92;;
6163;SDS011;3114;48.362;10.994;2023-02-22T04:13:54;7.38;;;3.88;;
6163;SDS011;3114;48.362;10.994;2023-02-22T04:16:22;4.72;;;3.10;;
6163;SDS011;3114;48.362;10.994;2023-02-22T04:18:49;4.65;;;3.10;;
6163;SDS011;3114;48.362;10.994;2023-02-22T04:21:17;4.35;;;3.08;;
6163;SDS011;3114;48.362;10.994;2023-02-22T04:23:44;4.38;;;3.25;;
6163;SDS011;3114;48.362;10.994;2023-02-22T04:26:11;4.35;;;3.42;;
6163;SDS011;3114;48.362;10.994;2023-02-22T04:28:38;7.43;;;3.33;;
6163;SDS011;3114;48.362;10.994;2023-02-22T04:31:05;5.13;;;3.03;;
6163;SDS011;3114;48.362;10.994;2023-02-22T04:33:32;6.53;;;3.40;;
6163;SDS011;3114;48.362;10.994;2023-02-22T04:35:59;5.13;;;3.58;;
6163;SDS011;3114;48.362;10.994;2023-02-22T04:38:27;9.93;;;3.63;;
6163;SDS011;3114;48.362;10.994;2023-02-22T04:40:54;5.35;;;3.35;;
6163;SDS011;3114;48.362;10.994;2023-02-22T04:43:21;3.47;;;2.85;;
6163;SDS011;3114;48.362;10.994;2023-02-22T04:45:48;4.10;;;3.17;;
6163;SDS011;3114;48.362;10.994;2023-02-22T04:48:15;5.25;;;3.25;;
6163;SDS011;3114;48.362;10.994;2023-02-22T04:50:42;8.23;;;3.40;;
6163;SDS011;3114;48.362;10.994;2023-02-22T04:53:09;6.68;;;3.65;;
6163;SDS011;3114;48.362;10.994;2023-02-22T04:55:37;5.05;;;3.42;;
6163;SDS011;3114;48.362;10.994;2023-02-22T04:58:04;4.43;;;3.10;;
6163;SDS011;3114;48.362;10.994;2023-02-22T05:00:31;5.63;;;3.42;;
6163;SDS011;3114;48.362;10.994;2023-02-22T05:02:57;6.17;;;3.43;;
6163;SDS011;3114;48.362;10.994;2023-02-22T05:05:25;3.73;;;3.00;;
6163;SDS011;3114;48.362;10.994;2023-02-22T05:07:51;5.93;;;3.13;;
6163;SDS011;3114;48.362;10.994;2023-02-22T05:10:18;5.00;;;3.80;;
6163;SDS011;3114;48.362;10.994;2023-02-22T05:12:47;5.95;;;3.97;;
6163;SDS011;3114;48.362;10.994;2023-02-22T05:15:15;5.70;;;4.22;;
6163;SDS011;3114;48.362;10.994;2023-02-22T05:17:43;6.70;;;3.70;;
6163;SDS011;3114;48.362;10.994;2023-02-22T05:20:14;5.20;;;3.55;;
6163;SDS011;3114;48.362;10.994;2023-02-22T05:22:43;5.13;;;3.60;;
6163;SDS011;3114;48.362;10.994;2023-02-22T05:25:10;4.93;;;3.65;;
6163;SDS011;3114;48.362;10.994;2023-02-22T05:27:36;5.00;;;3.53;;
6163;SDS011;3114;48.362;10.994;2023-02-22T05:30:05;6.30;;;3.83;;
6163;SDS011;3114;48.362;10.994;2023-02-22T05:32:34;4.32;;;3.15;;
6163;SDS011;3114;48.362;10.994;2023-02-22T05:35:00;6.10;;;3.53;;
6163;SDS011;3114;48.362;10.994;2023-02-22T05:37:30;5.25;;;4.00;;
6163;SDS011;3114;48.362;10.994;2023-02-22T05:39:56;6.53;;;3.37;;
6163;SDS011;3114;48.362;10.994;2023-02-22T05:42:23;9.07;;;4.07;;
6163;SDS011;3114;48.362;10.994;2023-02-22T05:44:50;5.20;;;3.93;;
6163;SDS011;3114;48.362;10.994;2023-02-22T05:47:18;5.57;;;3.80;;
6163;SDS011;3114;48.362;10.994;2023-02-22T05:49:45;6.35;;;3.70;;
6163;SDS011;3114;48.362;10.994;2023-02-22T05:52:12;7.18;;;3.67;;
6163;SDS011;3114;48.362;10.994;2023-02-22T05:54:39;6.40;;;4.15;;
6163;SDS011;3114;48.362;10.994;2023-02-22T05:57:06;9.63;;;4.80;;
6163;SDS011;3114;48.362;10.994;2023-02-22T05:59:33;6.38;;;4.20;;
6163;SDS011;3114;48.362;10.994;2023-02-22T06:02:00;7.63;;;4.30;;
6163;SDS011;3114;48.362;10.994;2023-02-22T06:04:28;10.00;;;4.07;;
6163;SDS011;3114;48.362;10.994;2023-02-22T06:06:55;5.50;;;4.10;;
6163;SDS011;3114;48.362;10.994;2023-02-22T06:09:22;6.70;;;4.57;;
6163;SDS011;3114;48.362;10.994;2023-02-22T06:11:49;5.78;;;4.10;;
6163;SDS011;3114;48.362;10.994;2023-02-22T06:14:16;7.70;;;4.20;;
6163;SDS011;3114;48.362;10.994;2023-02-22T06:16:43;6.32;;;4.00;;
6163;SDS011;3114;48.362;10.994;2023-02-22T06:19:09;6.25;;;4.35;;
6163;SDS011;3114;48.362;10.994;2023-02-22T06:21:38;8.25;;;4.65;;
6163;SDS011;3114;48.362;10.994;2023-02-22T06:24:06;8.63;;;4.03;;
6163;SDS011;3114;48.362;10.994;2023-02-22T06:26:32;7.38;;;4.53;;
6163;SDS011;3114;48.362;10.994;2023-02-22T06:29:00;5.97;;;4.25;;
6163;SDS011;3114;48.362;10.994;2023-02-22T06:31:26;8.27;;;3.92;;
6163;SDS011;3114;48.362;10.994;2023-02-22T06:33:53;7.00;;;4.18;;
6163;SDS011;3114;48.362;10.994;2023-02-22T06:36:20;7.65;;;4.20;;
6163;SDS011;3114;48.362;10.994;2023-02-22T06:38:48;6.97;;;4.55;;
6163;SDS011;3114;48.362;10.994;2023-02-22T06:41:15;6.13;;;4.75;;
6163;SDS011;3114;48.362;10.994;2023-02-22T06:43:42;8.05;;;4.40;;
6163;SDS011;3114;48.362;10.994;2023-02-22T06:46:11;8.02;;;4.70;;
6163;SDS011;3114;48.362;10.994;2023-02-22T06:48:38;5.47;;;4.30;;
6163;SDS011;3114;48.362;10.994;2023-02-22T06:51:06;5.95;;;4.50;;
6163;SDS011;3114;48.362;10.994;2023-02-22T06:53:33;7.97;;;4.43;;
6163;SDS011;3114;48.362;10.994;2023-02-22T06:56:02;6.78;;;4.35;;
6163;SDS011;3114;48.362;10.994;2023-02-22T06:58:29;7.05;;;4.20;;
6163;SDS011;3114;48.362;10.994;2023-02-22T07:00:55;9.88;;;4.93;;
6163;SDS011;3114;48.362;10.994;2023-02-22T07:03:22;6.45;;;4.07;;
6163;SDS011;3114;48.362;10.994;2023-02-22T07:05:49;5.05;;;3.80;;
6163;SDS011;3114;48.362;10.994;2023-02-22T07:08:16;5.47;;;4.03;;
6163;SDS011;3114;48.362;10.994;2023-02-22T07:10:43;6.90;;;4.40;;
6163;SDS011;3114;48.362;10.994;2023-02-22T07:13:11;6.10;;;3.90;;
6163;SDS011;3114;48.362;10.994;2023-02-22T07:15:39;10.25;;;4.80;;
6163;SDS011;3114;48.362;10.994;2023-02-22T07:18:06;8.47;;;4.67;;
6163;SDS011;3114;48.362;10.994;2023-02-22T07:20:33;9.33;;;4.80;;
6163;SDS011;3114;48.362;10.994;2023-02-22T07:23:00;7.17;;;4.20;;
6163;SDS011;3114;48.362;10.994;2023-02-22T07:25:27;5.97;;;3.77;;
6163;SDS011;3114;48.362;10.994;2023-02-22T07:27:53;6.73;;;3.70;;
6163;SDS011;3114;48.362;10.994;2023-02-22T07:30:22;5.97;;;3.30;;
6163;SDS011;3114;48.362;10.994;2023-02-22T07:32:52;5.77;;;3.70;;
6163;SDS011;3114;48.362;10.994;2023-02-22T07:35:20;5.70;;;3.60;;
6163;SDS011;3114;48.362;10.994;2023-02-22T07:37:48;5.70;;;3.27;;
6163;SDS011;3114;48.362;10.994;2023-02-22T07:40:15;7.53;;;3.60;;
6163;SDS011;3114;48.362;10.994;2023-02-22T07:42:50;8.00;;;3.63;;
6163;SDS011;3114;48.362;10.994;2023-02-22T07:45:25;6.35;;;3.80;;
6163;SDS011;3114;48.362;10.994;2023-02-22T07:47:53;7.95;;;3.90;;
6163;SDS011;3114;48.362;10.994;2023-02-22T07:50:21;6.72;;;3.80;;
6163;SDS011;3114;48.362;10.994;2023-02-22T07:52:50;5.03;;;3.30;;
6163;SDS011;3114;48.362;10.994;2023-02-22T07:55:19;8.95;;;3.80;;
6163;SDS011;3114;48.362;10.994;2023-02-22T07:57:49;6.65;;;4.28;;
6163;SDS011;3114;48.362;10.994;2023-02-22T08:00:20;7.60;;;4.53;;
6163;SDS011;3114;48.362;10.994;2023-02-22T08:02:50;7.55;;;3.90;;
6163;SDS011;3114;48.362;10.994;2023-02-22T08:05:17;9.32;;;4.15;;
6163;SDS011;3114;48.362;10.994;2023-02-22T08:07:45;5.90;;;3.97;;
6163;SDS011;3114;48.362;10.994;2023-02-22T08:10:12;9.25;;;4.30;;
6163;SDS011;3114;48.362;10.994;2023-02-22T08:12:40;4.15;;;3.53;;
6163;SDS011;3114;48.362;10.994;2023-02-22T08:15:14;6.55;;;4.30;;
6163;SDS011;3114;48.362;10.994;2023-02-22T08:17:43;6.28;;;3.92;;
6163;SDS011;3114;48.362;10.994;2023-02-22T08:20:11;6.18;;;3.90;;
6163;SDS011;3114;48.362;10.994;2023-02-22T08:22:41;5.47;;;4.00;;
6163;SDS011;3114;48.362;10.994;2023-02-22T08:25:08;6.50;;;3.90;;
6163;SDS011;3114;48.362;10.994;2023-02-22T08:27:35;6.68;;;3.88;;
6163;SDS011;3114;48.362;10.994;2023-02-22T08:30:02;7.47;;;4.10;;
6163;SDS011;3114;48.362;10.994;2023-02-22T08:32:29;5.70;;;3.75;;
6163;SDS011;3114;48.362;10.994;2023-02-22T08:34:56;6.72;;;4.07;;
6163;SDS011;3114;48.362;10.994;2023-02-22T08:37:24;5.18;;;3.75;;
6163;SDS011;3114;48.362;10.994;2023-02-22T08:39:51;6.00;;;3.83;;
6163;SDS011;3114;48.362;10.994;2023-02-22T08:42:20;5.53;;;3.75;;
6163;SDS011;3114;48.362;10.994;2023-02-22T08:44:47;8.20;;;3.88;;
6163;SDS011;3114;48.362;10.994;2023-02-22T08:47:13;6.00;;;3.50;;
6163;SDS011;3114;48.362;10.994;2023-02-22T08:49:40;9.23;;;4.05;;
6163;SDS011;3114;48.362;10.994;2023-02-22T08:52:07;5.65;;;3.70;;
6163;SDS011;3114;48.362;10.994;2023-02-22T08:54:36;5.00;;;3.25;;
6163;SDS011;3114;48.362;10.994;2023-02-22T08:57:03;7.30;;;3.88;;
6163;SDS011;3114;48.362;10.994;2023-02-22T08:59:30;4.80;;;3.45;;
6163;SDS011;3114;48.362;10.994;2023-02-22T09:01:57;4.57;;;3.45;;
6163;SDS011;3114;48.362;10.994;2023-02-22T09:04:24;6.25;;;2.80;;
6163;SDS011;3114;48.362;10.994;2023-02-22T09:06:50;5.43;;;3.38;;
6163;SDS011;3114;48.362;10.994;2023-02-22T09:09:17;5.78;;;3.13;;
6163;SDS011;3114;48.362;10.994;2023-02-22T09:11:47;5.05;;;3.10;;
6163;SDS011;3114;48.362;10.994;2023-02-22T09:14:14;4.20;;;3.05;;
6163;SDS011;3114;48.362;10.994;2023-02-22T09:16:42;3.78;;;3.00;;
6163;SDS011;3114;48.362;10.994;2023-02-22T09:19:09;4.47;;;2.90;;
6163;SDS011;3114;48.362;10.994;2023-02-22T09:21:35;6.93;;;4.22;;
6163;SDS011;3114;48.362;10.994;2023-02-22T09:24:04;4.85;;;3.15;;
6163;SDS011;3114;48.362;10.994;2023-02-22T09:26:33;3.80;;;3.10;;
6163;SDS011;3114;48.362;10.994;2023-02-22T09:29:04;4.53;;;3.13;;
6163;SDS011;3114;48.362;10.994;2023-02-22T09:31:34;6.43;;;3.50;;
6163;SDS011;3114;48.362;10.994;2023-02-22T09:34:01;7.45;;;3.67;;
6163;SDS011;3114;48.362;10.994;2023-02-22T09:36:30;7.80;;;4.10;;
6163;SDS011;3114;48.362;10.994;2023-02-22T09:38:57;6.88;;;3.53;;
6163;SDS011;3114;48.362;10.994;2023-02-22T09:41:24;4.60;;;3.67;;
6163;SDS011;3114;48.362;10.994;2023-02-22T09:44:02;5.75;;;3.53;;
6163;SDS011;3114;48.362;10.994;2023-02-22T09:46:40;5.63;;;3.88;;
6163;SDS011;3114;48.362;10.994;2023-02-22T09:49:15;5.15;;;3.40;;
6163;SDS011;3114;48.362;10.994;2023-02-22T09:51:47;6.05;;;3.10;;
6163;SDS011;3114;48.362;10.994;2023-02-22T09:54:20;6.78;;;3.38;;
6163;SDS011;3114;48.362;10.994;2023-02-22T09:56:54;6.35;;;3.40;;
6163;SDS011;3114;48.362;10.994;2023-02-22T09:59:25;5.68;;;3.20;;
6163;SDS011;3114;48.362;10.994;2023-02-22T10:01:57;5.35;;;3.13;;
6163;SDS011;3114;48.362;10.994;2023-02-22T10:04:33;4.38;;;3.20;;
6163;SDS011;3114;48.362;10.994;2023-02-22T10:07:10;4.53;;;3.15;;
6163;SDS011;3114;48.362;10.994;2023-02-22T10:09:43;3.92;;;3.30;;
6163;SDS011;3114;48.362;10.994;2023-02-22T10:12:14;4.55;;;3.15;;
6163;SDS011;3114;48.362;10.994;2023-02-22T10:15:04;5.22;;;3.10;;
6163;SDS011;3114;48.362;10.994;2023-02-22T10:17:49;3.75;;;2.75;;
6163;SDS011;3114;48.362;10.994;2023-02-22T10:20:22;6.60;;;2.90;;
6163;SDS011;3114;48.362;10.994;2023-02-22T10:23:08;5.07;;;2.65;;
6163;SDS011;3114;48.362;10.994;2023-02-22T10:25:41;6.05;;;2.90;;
6163;SDS011;3114;48.362;10.994;2023-02-22T10:28:11;4.03;;;2.67;;
6163;SDS011;3114;48.362;10.994;2023-02-22T10:30:45;6.60;;;2.70;;
6163;SDS011;3114;48.362;10.994;2023-02-22T10:33:19;3.42;;;2.33;;
6163;SDS011;3114;48.362;10.994;2023-02-22T10:35:47;4.18;;;2.72;;
6163;SDS011;3114;48.362;10.994;2023-02-22T10:38:18;7.22;;;2.75;;
6163;SDS011;3114;48.362;10.994;2023-02-22T10:40:48;3.95;;;2.03;;
6163;SDS011;3114;48.362;10.994;2023-02-22T10:43:19;2.90;;;2.20;;
6163;SDS011;3114;48.362;10.994;2023-02-22T10:45:48;4.43;;;2.30;;
6163;SDS011;3114;48.362;10.994;2023-02-22T10:48:20;3.13;;;2.38;;
6163;SDS011;3114;48.362;10.994;2023-02-22T10:50:49;3.03;;;2.05;;
6163;SDS011;3114;48.362;10.994;2023-02-22T10:53:19;4.85;;;2.40;;
6163;SDS011;3114;48.362;10.994;2023-02-22T10:56:06;4.38;;;2.15;;
6163;SDS011;3114;48.362;10.994;2023-02-22T10:58:45;4.25;;;2.15;;
6163;SDS011;3114;48.362;10.994;2023-02-22T11:01:20;5.35;;;1.98;;
6163;SDS011;3114;48.362;10.994;2023-02-22T11:03:55;5.72;;;2.40;;
6163;SDS011;3114;48.362;10.994;2023-02-22T11:06:24;3.10;;;2.15;;
6163;SDS011;3114;48.362;10.994;2023-02-22T11:08:51;3.20;;;1.92;;
6163;SDS011;3114;48.362;10.994;2023-02-22T11:11:30;2.83;;;1.98;;
6163;SDS011;3114;48.362;10.994;2023-02-22T11:13:58;2.70;;;1.90;;
6163;SDS011;3114;48.362;10.994;2023-02-22T11:16:30;2.58;;;1.90;;
6163;SDS011;3114;48.362;10.994;2023-02-22T11:19:00;5.57;;;1.90;;
6163;SDS011;3114;48.362;10.994;2023-02-22T11:21:29;2.97;;;2.00;;
6163;SDS011;3114;48.362;10.994;2023-02-22T11:24:00;5.65;;;2.03;;
6163;SDS011;3114;48.362;10.994;2023-02-22T11:26:28;4.05;;;1.90;;
6163;SDS011;3114;48.362;10.994;2023-02-22T11:29:08;3.38;;;1.85;;
6163;SDS011;3114;48.362;10.994;2023-02-22T11:31:42;3.00;;;1.67;;
6163;SDS011;3114;48.362;10.994;2023-02-22T11:34:23;3.58;;;2.05;;
6163;SDS011;3114;48.362;10.994;2023-02-22T11:36:56;2.63;;;1.75;;
6163;SDS011;3114;48.362;10.994;2023-02-22T11:39:41;3.28;;;1.77;;
6163;SDS011;3114;48.362;10.994;2023-02-22T11:42:12;2.25;;;1.73;;
6163;SDS011;3114;48.362;10.994;2023-02-22T11:44:47;7.55;;;2.10;;
6163;SDS011;3114;48.362;10.994;2023-02-22T11:47:15;2.42;;;1.70;;
6163;SDS011;3114;48.362;10.994;2023-02-22T11:49:43;1.98;;;1.77;;
6163;SDS011;3114;48.362;10.994;2023-02-22T11:52:15;2.88;;;1.60;;
6163;SDS011;3114;48.362;10.994;2023-02-22T11:54:54;2.92;;;1.88;;
6163;SDS011;3114;48.362;10.994;2023-02-22T11:57:38;2.72;;;1.80;;
6163;SDS011;3114;48.362;10.994;2023-02-22T12:00:17;3.10;;;1.70;;
6163;SDS011;3114;48.362;10.994;2023-02-22T12:05:55;4.30;;;1.83;;
6163;SDS011;3114;48.362;10.994;2023-02-22T12:08:40;3.55;;;3.25;;
6163;SDS011;3114;48.362;10.994;2023-02-22T12:11:12;3.20;;;2.08;;
6163;SDS011;3114;48.362;10.994;2023-02-22T12:13:50;1.77;;;1.65;;
6163;SDS011;3114;48.362;10.994;2023-02-22T12:16:31;2.97;;;1.80;;
6163;SDS011;3114;48.362;10.994;2023-02-22T12:19:12;2.55;;;1.80;;
6163;SDS011;3114;48.362;10.994;2023-02-22T12:21:47;2.83;;;1.77;;
6163;SDS011;3114;48.362;10.994;2023-02-22T12:24:19;4.90;;;1.75;;
6163;SDS011;3114;48.362;10.994;2023-02-22T12:26:50;2.13;;;1.63;;
6163;SDS011;3114;48.362;10.994;2023-02-22T12:29:24;2.60;;;2.05;;
6163;SDS011;3114;48.362;10.994;2023-02-22T12:31:55;3.47;;;1.88;;
6163;SDS011;3114;48.362;10.994;2023-02-22T12:34:30;1.77;;;1.50;;
6163;SDS011;3114;48.362;10.994;2023-02-22T12:37:03;4.68;;;1.92;;
6163;SDS011;3114;48.362;10.994;2023-02-22T12:39:45;3.03;;;2.00;;
6163;SDS011;3114;48.362;10.994;2023-02-22T12:42:20;3.92;;;1.52;;
6163;SDS011;3114;48.362;10.994;2023-02-22T12:44:54;2.30;;;1.60;;
6163;SDS011;3114;48.362;10.994;2023-02-22T12:47:26;3.53;;;1.50;;
6163;SDS011;3114;48.362;10.994;2023-02-22T12:50:01;1.55;;;1.45;;
6163;SDS011;3114;48.362;10.994;2023-02-22T12:52:34;1.80;;;1.33;;
6163;SDS011;3114;48.362;10.994;2023-02-22T12:55:09;3.95;;;1.77;;
6163;SDS011;3114;48.362;10.994;2023-02-22T12:57:41;2.88;;;1.52;;
6163;SDS011;3114;48.362;10.994;2023-02-22T13:00:14;1.90;;;1.42;;
6163;SDS011;3114;48.362;10.994;2023-02-22T13:02:49;2.58;;;1.50;;
6163;SDS011;3114;48.362;10.994;2023-02-22T13:05:24;2.97;;;1.30;;
6163;SDS011;3114;48.362;10.994;2023-02-22T13:07:58;1.35;;;1.20;;
6163;SDS011;3114;48.362;10.994;2023-02-22T13:10:40;1.65;;;1.30;;
6163;SDS011;3114;48.362;10.994;2023-02-22T13:13:26;2.33;;;1.10;;
6163;SDS011;3114;48.362;10.994;2023-02-22T13:16:02;1.23;;;0.90;;
6163;SDS011;3114;48.362;10.994;2023-02-22T13:18:35;1.75;;;1.20;;
6163;SDS011;3114;48.362;10.994;2023-02-22T13:21:14;1.20;;;1.10;;
6163;SDS011;3114;48.362;10.994;2023-02-22T13:23:46;1.45;;;1.25;;
6163;SDS011;3114;48.362;10.994;2023-02-22T13:26:20;2.58;;;1.25;;
6163;SDS011;3114;48.362;10.994;2023-02-22T13:28:54;1.40;;;1.30;;
6163;SDS011;3114;48.362;10.994;2023-02-22T13:31:29;3.28;;;1.50;;
6163;SDS011;3114;48.362;10.994;2023-02-22T13:34:12;2.75;;;1.92;;
6163;SDS011;3114;48.362;10.994;2023-02-22T13:36:52;1.30;;;1.20;;
6163;SDS011;3114;48.362;10.994;2023-02-22T13:39:45;2.22;;;1.20;;
6163;SDS011;3114;48.362;10.994;2023-02-22T13:45:30;2.55;;;1.35;;
6163;SDS011;3114;48.362;10.994;2023-02-22T13:48:16;3.38;;;1.20;;
6163;SDS011;3114;48.362;10.994;2023-02-22T13:51:09;1.92;;;1.10;;
6163;SDS011;3114;48.362;10.994;2023-02-22T13:53:50;4.70;;;1.75;;
6163;SDS011;3114;48.362;10.994;2023-02-22T13:56:20;1.50;;;1.40;;
6163;SDS011;3114;48.362;10.994;2023-02-22T13:58:49;3.08;;;1.40;;
6163;SDS011;3114;48.362;10.994;2023-02-22T14:01:37;1.63;;;1.38;;
6163;SDS011;3114;48.362;10.994;2023-02-22T14:07:02;3.03;;;1.50;;
6163;SDS011;3114;48.362;10.994;2023-02-22T14:09:52;3.25;;;1.70;;
6163;SDS011;3114;48.362;10.994;2023-02-22T14:15:13;2.95;;;1.52;;
6163;SDS011;3114;48.362;10.994;2023-02-22T14:17:41;3.50;;;1.58;;
6163;SDS011;3114;48.362;10.994;2023-02-22T14:20:20;2.95;;;1.45;;
6163;SDS011;3114;48.362;10.994;2023-02-22T14:22:56;1.42;;;1.25;;
6163;SDS011;3114;48.362;10.994;2023-02-22T14:25:45;1.85;;;1.30;;
6163;SDS011;3114;48.362;10.994;2023-02-22T14:31:20;1.40;;;1.30;;
6163;SDS011;3114;48.362;10.994;2023-02-22T14:33:55;3.67;;;1.60;;
6163;SDS011;3114;48.362;10.994;2023-02-22T14:36:25;3.65;;;1.98;;
6163;SDS011;3114;48.362;10.994;2023-02-22T14:38:55;5.20;;;2.30;;
6163;SDS011;3114;48.362;10.994;2023-02-22T14:41:29;3.95;;;2.08;;
6163;SDS011;3114;48.362;10.994;2023-02-22T14:43:57;4.28;;;1.65;;
6163;SDS011;3114;48.362;10.994;2023-02-22T14:46:29;4.53;;;2.00;;
6163;SDS011;3114;48.362;10.994;2023-02-22T14:49:04;3.22;;;1.63;;
6163;SDS011;3114;48.362;10.994;2023-02-22T14:51:38;1.95;;;1.60;;
6163;SDS011;3114;48.362;10.994;2023-02-22T14:54:08;4.90;;;1.58;;
6163;SDS011;3114;48.362;10.994;2023-02-22T14:56:43;3.30;;;1.63;;
6163;SDS011;3114;48.362;10.994;2023-02-22T14:59:17;3.30;;;1.52;;
6163;SDS011;3114;48.362;10.994;2023-02-22T15:01:48;4.20;;;1.50;;
6163;SDS011;3114;48.362;10.994;2023-02-22T15:04:15;3.70;;;1.42;;
6163;SDS011;3114;48.362;10.994;2023-02-22T15:06:43;3.53;;;1.85;;
6163;SDS011;3114;48.362;10.994;2023-02-22T15:09:11;1.75;;;1.60;;
6163;SDS011;3114;48.362;10.994;2023-02-22T15:11:49;3.45;;;1.88;;
6163;SDS011;3114;48.362;10.994;2023-02-22T15:14:18;3.58;;;1.92;;
6163;SDS011;3114;48.362;10.994;2023-02-22T15:16:48;2.97;;;2.10;;
6163;SDS011;3114;48.362;10.994;2023-02-22T15:19:17;2.45;;;1.60;;
6163;SDS011;3114;48.362;10.994;2023-02-22T15:21:50;2.28;;;1.83;;
6163;SDS011;3114;48.362;10.994;2023-02-22T15:24:20;5.18;;;2.00;;
6163;SDS011;3114;48.362;10.994;2023-02-22T15:26:51;2.70;;;2.00;;
6163;SDS011;3114;48.362;10.994;2023-02-22T15:29:20;4.43;;;2.53;;
6163;SDS011;3114;48.362;10.994;2023-02-22T15:31:49;3.75;;;2.10;;
6163;SDS011;3114;48.362;10.994;2023-02-22T15:34:18;6.82;;;2.10;;
6163;SDS011;3114;48.362;10.994;2023-02-22T15:36:49;11.98;;;2.17;;
6163;SDS011;3114;48.362;10.994;2023-02-22T15:39:19;2.38;;;1.88;;